createdAt,value
2023-05-01T00:00:42.546Z,4.6167
2023-05-01T00:01:42.654Z,4.8056
2023-05-01T00:02:42.921Z,4.9944
2023-05-01T00:03:43.180Z,4.8167
2023-05-01T00:04:43.441Z,4.7056
2023-05-01T00:05:43.542Z,4.9000
2023-05-01T00:06:43.684Z,4.7056
2023-05-01T00:07:43.816Z,4.4611
2023-05-01T00:08:43.932Z,4.8556
2023-05-01T00:09:44.088Z,4.8389
2023-05-01T00:10:44.189Z,4.7222
2023-05-01T00:11:44.327Z,5.6333
2023-05-01T00:12:44.469Z,5.0222
2023-05-01T00:13:44.573Z,4.9389
2023-05-01T00:14:44.684Z,5.0667
2023-05-01T00:15:44.812Z,5.0111
2023-05-01T00:16:44.979Z,4.9667
2023-05-01T00:17:45.193Z,4.9722
2023-05-01T00:18:45.309Z,4.8611
2023-05-01T00:19:45.401Z,5.0111
2023-05-01T00:20:45.501Z,5.4389
2023-05-01T00:21:45.694Z,4.7722
2023-05-01T00:22:45.799Z,5.0167
2023-05-01T00:23:45.939Z,6.3222
2023-05-01T00:24:46.045Z,5.2667
2023-05-01T00:25:46.188Z,5.7056
2023-05-01T00:26:46.366Z,6.0111
2023-05-01T00:27:46.471Z,5.3222
2023-05-01T00:28:46.582Z,5.4667
2023-05-01T00:29:46.696Z,5.9833
2023-05-01T00:30:46.863Z,6.4833
2023-05-01T00:31:47.076Z,6.3111
2023-05-01T00:32:47.325Z,6.0611
2023-05-01T00:33:47.393Z,5.6944
2023-05-01T00:34:47.482Z,5.8556
2023-05-01T00:35:47.601Z,6.5500
2023-05-01T00:36:49.707Z,6.4611
2023-05-01T00:37:50.100Z,6.1333
2023-05-01T00:38:50.227Z,6.7500
2023-05-01T00:39:50.330Z,6.9722
2023-05-01T00:40:50.476Z,6.6556
2023-05-01T00:41:50.622Z,6.5722
2023-05-01T00:42:50.747Z,6.6333
2023-05-01T00:43:50.906Z,6.9389
2023-05-01T00:44:51.005Z,6.6222
2023-05-01T00:45:51.164Z,6.6333
2023-05-01T00:46:51.259Z,6.6889
2023-05-01T00:47:51.445Z,6.8833
2023-05-01T00:48:51.547Z,6.2778
2023-05-01T00:49:51.659Z,6.1944
2023-05-01T00:50:51.767Z,6.6889
2023-05-01T00:51:51.944Z,6.4056
2023-05-01T00:52:52.032Z,6.7056
2023-05-01T00:53:52.144Z,7.2222
2023-05-01T00:54:52.287Z,7.1778
2023-05-01T00:55:52.421Z,8.0222
2023-05-01T00:56:52.566Z,7.2056
2023-05-01T00:57:52.714Z,6.9500
2023-05-01T00:58:52.829Z,7.1000
2023-05-01T00:59:53.000Z,6.7778
2023-05-01T01:00:53.200Z,7.3444
2023-05-01T01:01:55.678Z,7.4333
2023-05-01T01:02:53.467Z,8.3000
2023-05-01T01:03:53.642Z,8.0294
2023-05-01T01:04:53.727Z,8.9944
2023-05-01T01:05:53.851Z,8.4500
2023-05-01T01:06:53.953Z,9.1833
2023-05-01T01:07:54.079Z,7.9611
2023-05-01T01:08:54.216Z,6.8556
2023-05-01T01:09:54.414Z,6.2444
2023-05-01T01:10:54.530Z,7.6111
2023-05-01T01:11:54.636Z,7.9722
2023-05-01T01:12:54.773Z,6.7333
2023-05-01T01:13:54.918Z,7.3611
2023-05-01T01:14:55.015Z,6.5889
2023-05-01T01:15:55.133Z,7.2056
2023-05-01T01:16:55.286Z,6.8000
2023-05-01T01:17:55.405Z,6.3111
2023-05-01T01:18:55.552Z,7.6222
2023-05-01T01:19:55.955Z,7.1444
2023-05-01T01:20:56.203Z,8.3111
2023-05-01T01:21:56.334Z,8.5500
2023-05-01T01:22:56.447Z,8.5889
2023-05-01T01:23:56.578Z,9.0000
2023-05-01T01:24:56.766Z,7.9611
2023-05-01T01:25:56.863Z,8.3000
2023-05-01T01:26:56.988Z,9.6000
2023-05-01T01:27:57.117Z,8.1833
2023-05-01T01:28:57.217Z,7.6611
2023-05-01T01:29:57.638Z,8.1167
2023-05-01T01:30:58.067Z,9.3333
2023-05-01T01:31:58.174Z,9.7667
2023-05-01T01:32:58.346Z,9.3833
2023-05-01T01:33:58.460Z,9.1000
2023-05-01T01:34:58.571Z,8.7000
2023-05-01T01:35:58.722Z,8.3944
2023-05-01T01:36:58.887Z,9.9222
2023-05-01T01:37:59.020Z,9.4167
2023-05-01T01:38:59.143Z,9.3000
2023-05-01T01:39:59.281Z,8.6222
2023-05-01T01:40:59.425Z,7.8500
2023-05-01T01:41:59.616Z,7.1111
2023-05-01T01:42:59.809Z,7.6944
2023-05-01T01:43:59.905Z,9.0944
2023-05-01T01:45:00.050Z,8.9944
2023-05-01T01:46:00.220Z,8.3667
2023-05-01T01:47:00.306Z,8.2000
2023-05-01T01:48:00.539Z,7.9444
2023-05-01T01:49:00.647Z,9.0611
2023-05-01T01:50:00.774Z,8.3000
2023-05-01T01:51:00.904Z,8.9722
2023-05-01T01:52:01.036Z,10.5667
2023-05-01T01:53:01.145Z,11.5667
2023-05-01T01:54:01.266Z,10.5167
2023-05-01T01:55:01.382Z,8.7222
2023-05-01T01:56:03.574Z,8.8222
2023-05-01T01:57:03.947Z,11.5500
2023-05-01T01:58:04.083Z,10.8222
2023-05-01T01:59:04.223Z,9.0889
2023-05-01T02:00:04.321Z,9.6333
2023-05-01T02:01:04.510Z,8.3111
2023-05-01T02:02:04.753Z,7.8389
2023-05-01T02:03:05.005Z,7.7444
2023-05-01T02:04:05.105Z,7.3944
2023-05-01T02:05:05.225Z,8.6500
2023-05-01T02:06:05.367Z,7.4333
2023-05-01T02:07:05.520Z,7.6778
2023-05-01T02:08:05.650Z,6.8722
2023-05-01T02:09:05.786Z,6.8556
2023-05-01T02:10:06.051Z,6.8278
2023-05-01T02:11:06.131Z,7.7778
2023-05-01T02:12:06.237Z,8.2167
2023-05-01T02:13:06.375Z,8.5833
2023-05-01T02:14:06.509Z,7.4167
2023-05-01T02:15:06.626Z,7.7056
2023-05-01T02:16:06.828Z,6.7222
2023-05-01T02:17:06.900Z,6.9944
2023-05-01T02:18:07.055Z,7.3389
2023-05-01T02:19:07.183Z,7.1667
2023-05-01T02:20:07.304Z,8.2556
2023-05-01T02:21:07.443Z,8.4222
2023-05-01T02:22:07.555Z,7.2333
2023-05-01T02:23:07.714Z,6.8722
2023-05-01T02:24:07.832Z,6.9944
2023-05-01T02:25:07.973Z,8.1611
2023-05-01T02:26:08.081Z,8.0444
2023-05-01T02:27:08.224Z,6.8611
2023-05-01T02:28:08.330Z,7.4222
2023-05-01T02:29:08.478Z,8.2167
2023-05-01T02:30:08.582Z,9.5167
2023-05-01T02:31:08.715Z,9.1222
2023-05-01T02:32:08.875Z,7.5611
2023-05-01T02:33:09.062Z,8.1389
2023-05-01T02:34:09.172Z,8.2556
2023-05-01T02:35:09.306Z,9.4056
2023-05-01T02:36:09.409Z,8.4389
2023-05-01T02:37:09.545Z,7.5556
2023-05-01T02:38:09.673Z,8.3444
2023-05-01T02:39:09.812Z,9.1111
2023-05-01T02:40:09.922Z,8.5833
2023-05-01T02:41:10.033Z,8.5833
2023-05-01T02:42:10.164Z,7.7389
2023-05-01T02:43:10.355Z,7.3833
2023-05-01T02:44:10.452Z,7.1944
2023-05-01T02:45:10.610Z,7.9167
2023-05-01T02:46:10.765Z,9.7778
2023-05-01T02:47:10.895Z,8.4222
2023-05-01T02:48:11.097Z,8.4500
2023-05-01T02:49:11.213Z,8.8778
2023-05-01T02:50:11.340Z,8.4444
2023-05-01T02:51:11.455Z,7.6944
2023-05-01T02:52:11.566Z,8.0000
2023-05-01T02:53:11.767Z,7.5500
2023-05-01T02:54:11.879Z,7.9167
2023-05-01T02:55:12.056Z,9.3444
2023-05-01T02:56:12.186Z,12.1278
2023-05-01T02:57:12.374Z,10.7556
2023-05-01T02:58:12.475Z,11.0333
2023-05-01T02:59:12.627Z,12.0278
2023-05-01T03:00:12.792Z,11.0722
2023-05-01T03:01:12.975Z,11.4611
2023-05-01T03:02:13.086Z,11.7722
2023-05-01T03:03:13.271Z,12.2444
2023-05-01T03:04:13.450Z,13.6889
2023-05-01T03:05:13.569Z,14.1778
2023-05-01T03:06:13.794Z,15.0556
2023-05-01T03:07:13.887Z,13.6111
2023-05-01T03:08:13.992Z,14.8500
2023-05-01T03:09:14.126Z,14.5222
2023-05-01T03:10:14.254Z,13.8222
2023-05-01T03:11:14.410Z,14.7556
2023-05-01T03:12:14.517Z,11.3222
2023-05-01T03:13:14.660Z,12.8833
2023-05-01T03:14:14.767Z,15.2722
2023-05-01T03:15:14.962Z,16.2722
2023-05-01T03:16:15.158Z,18.4000
2023-05-01T03:17:15.268Z,18.5222
2023-05-01T03:18:15.397Z,16.4833
2023-05-01T03:19:15.558Z,27.4333
2023-05-01T03:20:15.686Z,49.8278
2023-05-01T03:21:15.824Z,84.6333
2023-05-01T03:22:15.928Z,45.4722
2023-05-01T03:23:19.197Z,15.9611
2023-05-01T03:24:16.107Z,11.9333
2023-05-01T03:25:16.231Z,12.4941
2023-05-01T03:26:16.364Z,12.4500
2023-05-01T03:27:16.491Z,12.8389
2023-05-01T03:28:16.628Z,12.0500
2023-05-01T03:29:16.768Z,14.5889
2023-05-01T03:30:16.914Z,13.9389
2023-05-01T03:31:17.049Z,28.8278
2023-05-01T03:32:17.258Z,11.2944
2023-05-01T03:33:17.406Z,17.7389
2023-05-01T03:34:17.527Z,26.4222
2023-05-01T03:35:17.750Z,13.0500
2023-05-01T03:36:17.866Z,20.4222
2023-05-01T03:37:18.028Z,22.2333
2023-05-01T03:38:18.150Z,21.5444
2023-05-01T03:39:18.306Z,15.9167
2023-05-01T03:40:18.437Z,32.9778
2023-05-01T03:41:18.576Z,11.3722
2023-05-01T03:42:18.770Z,56.7444
2023-05-01T03:43:18.892Z,32.7611
2023-05-01T03:44:19.054Z,18.5667
2023-05-01T03:45:19.173Z,17.9167
2023-05-01T03:46:19.329Z,21.5500
2023-05-01T03:47:19.439Z,16.1556
2023-05-01T03:48:19.595Z,12.0778
2023-05-01T03:49:19.715Z,12.8222
2023-05-01T03:50:19.835Z,19.8056
2023-05-01T03:51:19.999Z,24.0444
2023-05-01T03:52:20.171Z,16.2278
2023-05-01T03:53:20.315Z,31.4278
2023-05-01T03:54:20.502Z,42.7889
2023-05-01T03:55:20.613Z,55.7389
2023-05-01T03:56:20.754Z,93.0278
2023-05-01T03:57:20.941Z,68.0056
2023-05-01T03:58:21.060Z,112.9444
2023-05-01T03:59:21.199Z,36.1944
2023-05-01T04:00:21.324Z,192.7278
2023-05-01T04:01:21.458Z,66.2333
2023-05-01T04:02:21.718Z,20.0222
2023-05-01T04:03:22.107Z,173.7722
2023-05-01T04:04:22.251Z,208.8444
2023-05-01T04:05:22.377Z,21.3833
2023-05-01T04:06:22.548Z,19.1778
2023-05-01T04:07:22.678Z,18.6167
2023-05-01T04:08:22.782Z,15.8556
2023-05-01T04:09:22.909Z,16.6778
2023-05-01T04:10:23.028Z,15.3444
2023-05-01T04:11:23.155Z,25.1500
2023-05-01T04:12:23.292Z,13.6444
2023-05-01T04:13:23.412Z,17.7833
2023-05-01T04:14:23.561Z,14.7778
2023-05-01T04:15:23.710Z,14.1056
2023-05-01T04:16:23.844Z,14.6833
2023-05-01T04:17:23.982Z,17.1944
2023-05-01T04:18:24.110Z,15.7778
2023-05-01T04:19:24.230Z,19.8389
2023-05-01T04:20:24.369Z,20.3278
2023-05-01T04:21:24.484Z,19.4722
2023-05-01T04:22:24.602Z,23.0944
2023-05-01T04:23:24.919Z,23.3833
2023-05-01T04:24:25.002Z,24.1667
2023-05-01T04:25:25.152Z,33.1833
2023-05-01T04:26:25.275Z,24.8056
2023-05-01T04:27:25.436Z,23.3056
2023-05-01T04:28:25.553Z,26.9833
2023-05-01T04:29:25.679Z,26.7833
2023-05-01T04:30:25.821Z,21.2500
2023-05-01T04:31:25.965Z,27.8667
2023-05-01T04:32:26.132Z,25.3889
2023-05-01T04:33:26.222Z,25.2556
2023-05-01T04:34:26.338Z,28.1333
2023-05-01T04:35:26.482Z,24.6500
2023-05-01T04:36:26.619Z,28.7167
2023-05-01T04:37:26.751Z,29.0333
2023-05-01T04:38:26.864Z,32.4667
2023-05-01T04:39:27.008Z,25.7444
2023-05-01T04:40:27.125Z,22.7111
2023-05-01T04:41:27.245Z,21.2167
2023-05-01T04:42:27.358Z,22.4500
2023-05-01T04:43:27.489Z,20.5056
2023-05-01T04:44:27.646Z,16.4889
2023-05-01T04:45:27.785Z,22.6111
2023-05-01T04:46:27.932Z,19.3278
2023-05-01T04:47:28.032Z,15.8667
2023-05-01T04:48:28.141Z,14.4889
2023-05-01T04:49:28.282Z,20.6778
2023-05-01T04:50:28.399Z,17.7611
2023-05-01T04:51:28.520Z,16.4667
2023-05-01T04:52:28.640Z,14.3500
2023-05-01T04:53:28.780Z,16.3944
2023-05-01T04:54:28.921Z,17.7444
2023-05-01T04:55:31.023Z,15.1222
2023-05-01T04:56:31.333Z,16.3167
2023-05-01T04:57:31.454Z,17.6889
2023-05-01T04:58:31.571Z,16.4833
2023-05-01T04:59:31.748Z,16.0278
2023-05-01T05:00:31.901Z,15.2667
2023-05-01T05:01:32.075Z,13.7389
2023-05-01T05:02:32.285Z,15.1278
2023-05-01T05:03:32.594Z,18.3556
2023-05-01T05:04:32.730Z,18.1944
2023-05-01T05:05:32.896Z,15.8833
2023-05-01T05:06:33.070Z,17.3056
2023-05-01T05:07:33.184Z,16.7611
2023-05-01T05:08:33.309Z,12.7889
2023-05-01T05:09:33.458Z,14.6000
2023-05-01T05:10:33.586Z,17.1556
2023-05-01T05:11:33.702Z,14.3222
2023-05-01T05:12:33.834Z,12.7889
2023-05-01T05:13:33.995Z,14.5389
2023-05-01T05:14:34.109Z,16.8667
2023-05-01T05:15:34.282Z,19.2000
2023-05-01T05:16:34.458Z,19.9833
2023-05-01T05:17:34.583Z,22.3278
2023-05-01T05:18:34.689Z,19.4556
2023-05-01T05:19:34.818Z,19.4667
2023-05-01T05:20:34.947Z,20.1611
2023-05-01T05:21:35.085Z,20.0111
2023-05-01T05:22:35.206Z,23.4833
2023-05-01T05:23:35.360Z,25.9611
2023-05-01T05:24:35.489Z,27.8667
2023-05-01T05:25:35.600Z,27.7556
2023-05-01T05:26:35.729Z,26.8333
2023-05-01T05:27:35.893Z,26.7500
2023-05-01T05:28:36.003Z,21.3389
2023-05-01T05:29:36.174Z,20.3944
2023-05-01T05:30:36.278Z,17.1556
2023-05-01T05:31:36.469Z,20.3389
2023-05-01T05:32:36.660Z,22.4722
2023-05-01T05:33:36.763Z,24.7944
2023-05-01T05:34:36.870Z,27.4722
2023-05-01T05:35:37.029Z,27.6167
2023-05-01T05:36:37.134Z,28.1889
2023-05-01T05:37:37.275Z,24.9778
2023-05-01T05:38:37.395Z,26.5778
2023-05-01T05:39:37.551Z,31.6444
2023-05-01T05:40:37.664Z,34.0222
2023-05-01T05:41:37.817Z,34.5500
2023-05-01T05:42:37.938Z,30.3722
2023-05-01T05:43:38.127Z,31.0611
2023-05-01T05:44:38.303Z,31.0667
2023-05-01T05:45:38.495Z,30.6333
2023-05-01T05:46:38.726Z,29.0611
2023-05-01T05:47:38.973Z,35.5889
2023-05-01T05:48:39.235Z,29.5833
2023-05-01T05:49:39.295Z,32.4389
2023-05-01T05:50:39.419Z,31.0111
2023-05-01T05:51:39.571Z,31.9556
2023-05-01T05:52:39.704Z,33.9556
2023-05-01T05:53:39.831Z,32.3000
2023-05-01T05:54:39.967Z,29.8722
2023-05-01T05:55:40.150Z,26.0167
2023-05-01T05:56:40.299Z,27.2889
2023-05-01T05:57:40.454Z,29.3944
2023-05-01T05:58:40.579Z,27.5111
2023-05-01T05:59:40.720Z,25.8278
2023-05-01T06:00:40.846Z,22.6444
2023-05-01T06:01:40.965Z,28.7056
2023-05-01T06:02:41.160Z,25.1167
2023-05-01T06:03:41.495Z,21.0778
2023-05-01T06:04:41.762Z,21.1444
2023-05-01T06:05:41.941Z,22.0389
2023-05-01T06:06:42.080Z,19.8444
2023-05-01T06:07:42.177Z,21.9444
2023-05-01T06:08:42.303Z,21.9944
2023-05-01T06:09:42.489Z,28.6222
2023-05-01T06:10:42.604Z,19.0389
2023-05-01T06:11:43.045Z,21.2222
2023-05-01T06:12:47.051Z,23.9833
2023-05-01T06:13:45.986Z,22.1944
2023-05-01T06:14:46.099Z,23.4000
2023-05-01T06:15:46.271Z,25.5333
2023-05-01T06:16:46.370Z,24.0167
2023-05-01T06:17:46.587Z,23.6444
2023-05-01T06:18:46.703Z,17.2167
2023-05-01T06:19:46.802Z,20.7389
2023-05-01T06:20:46.933Z,20.2667
2023-05-01T06:21:47.057Z,23.2278
2023-05-01T06:22:47.195Z,21.5833
2023-05-01T06:23:47.331Z,21.0500
2023-05-01T06:24:47.448Z,19.2222
2023-05-01T06:25:47.570Z,18.1167
2023-05-01T06:26:47.707Z,19.9778
2023-05-01T06:27:47.836Z,19.1889
2023-05-01T06:28:48.000Z,18.6778
2023-05-01T06:29:48.146Z,17.5667
2023-05-01T06:30:48.271Z,18.7000
2023-05-01T06:31:48.415Z,19.1667
2023-05-01T06:32:48.611Z,18.5500
2023-05-01T06:33:48.781Z,17.7722
2023-05-01T06:34:48.914Z,15.2944
2023-05-01T06:35:49.064Z,14.2556
2023-05-01T06:36:49.192Z,15.0056
2023-05-01T06:37:49.310Z,19.0389
2023-05-01T06:38:49.460Z,18.7778
2023-05-01T06:39:49.611Z,16.1556
2023-05-01T06:40:49.731Z,20.4111
2023-05-01T06:41:49.917Z,20.4778
2023-05-01T06:42:50.083Z,18.2889
2023-05-01T06:43:50.229Z,22.2722
2023-05-01T06:44:50.342Z,20.2833
2023-05-01T06:45:50.472Z,18.8278
2023-05-01T06:46:50.708Z,20.4944
2023-05-01T06:47:50.881Z,19.6778
2023-05-01T06:48:50.992Z,18.8778
2023-05-01T06:49:51.134Z,16.5833
2023-05-01T06:50:51.270Z,15.7278
2023-05-01T06:51:51.427Z,14.8000
2023-05-01T06:52:51.574Z,15.4333
2023-05-01T06:53:51.749Z,14.4722
2023-05-01T06:54:51.940Z,16.0000
2023-05-01T06:55:52.053Z,15.0111
2023-05-01T06:56:52.242Z,14.4500
2023-05-01T06:57:52.378Z,16.2556
2023-05-01T06:58:52.521Z,17.2500
2023-05-01T06:59:52.670Z,16.2944
2023-05-01T07:00:52.846Z,13.7778
2023-05-01T07:01:52.975Z,15.8944
2023-05-01T07:02:53.219Z,15.0889
2023-05-01T07:03:54.378Z,13.8000
2023-05-01T07:04:54.517Z,14.8667
2023-05-01T07:05:54.654Z,12.8056
2023-05-01T07:06:54.843Z,12.8278
2023-05-01T07:08:01.336Z,12.2889
2023-05-01T07:08:57.765Z,13.6389
2023-05-01T07:09:58.377Z,15.9294
2023-05-01T07:10:58.737Z,15.8056
2023-05-01T07:11:58.919Z,12.9167
2023-05-01T07:12:59.061Z,12.7222
2023-05-01T07:13:59.188Z,14.2944
2023-05-01T07:14:59.328Z,12.1333
2023-05-01T07:15:59.459Z,11.7889
2023-05-01T07:16:59.649Z,12.2000
2023-05-01T07:17:59.781Z,13.2778
2023-05-01T07:18:59.912Z,13.6278
2023-05-01T07:20:00.056Z,14.1167
2023-05-01T07:21:00.224Z,14.0278
2023-05-01T07:22:00.352Z,14.8833
2023-05-01T07:23:00.511Z,16.4556
2023-05-01T07:24:00.652Z,14.5722
2023-05-01T07:25:00.760Z,13.6722
2023-05-01T07:26:00.919Z,11.2778
2023-05-01T07:27:01.070Z,12.8556
2023-05-01T07:28:01.225Z,14.1611
2023-05-01T07:29:01.369Z,11.9056
2023-05-01T07:30:01.516Z,10.1889
2023-05-01T07:31:01.671Z,11.7500
2023-05-01T07:32:01.773Z,13.8889
2023-05-01T07:33:02.022Z,13.6667
2023-05-01T07:34:02.145Z,14.0611
2023-05-01T07:35:02.299Z,13.3444
2023-05-01T07:36:02.895Z,14.2833
2023-05-01T07:37:02.954Z,12.6833
2023-05-01T07:38:03.072Z,12.4389
2023-05-01T07:39:03.216Z,13.5556
2023-05-01T07:40:03.341Z,13.0222
2023-05-01T07:41:03.522Z,13.0833
2023-05-01T07:42:03.668Z,11.6111
2023-05-01T07:43:03.789Z,9.8222
2023-05-01T07:44:03.901Z,8.9667
2023-05-01T07:45:04.073Z,10.9167
2023-05-01T07:46:04.244Z,10.7889
2023-05-01T07:47:04.339Z,12.0444
2023-05-01T07:48:04.565Z,10.9167
2023-05-01T07:49:04.676Z,9.8278
2023-05-01T07:50:04.797Z,11.1722
2023-05-01T07:51:05.117Z,11.3389
2023-05-01T07:52:05.172Z,11.7056
2023-05-01T07:53:05.335Z,11.3667
2023-05-01T07:54:05.466Z,10.4000
2023-05-01T07:55:05.667Z,12.8667
2023-05-01T07:56:05.811Z,13.0056
2023-05-01T07:57:05.953Z,12.5278
2023-05-01T07:58:06.088Z,11.3056
2023-05-01T07:59:06.242Z,11.6611
2023-05-01T08:00:06.417Z,11.6056
2023-05-01T08:01:06.541Z,10.3722
2023-05-01T08:02:06.696Z,10.5167
2023-05-01T08:03:07.094Z,10.4889
2023-05-01T08:04:08.396Z,10.3667
2023-05-01T08:05:08.536Z,11.4000
2023-05-01T08:06:08.749Z,10.9111
2023-05-01T08:07:08.939Z,10.2722
2023-05-01T08:08:09.076Z,9.1444
2023-05-01T08:09:09.178Z,10.6222
2023-05-01T08:10:09.343Z,10.1389
2023-05-01T08:11:09.462Z,9.0000
2023-05-01T08:12:09.585Z,8.5333
2023-05-01T08:13:09.706Z,9.0111
2023-05-01T08:14:09.812Z,9.8667
2023-05-01T08:15:09.926Z,9.9889
2023-05-01T08:16:10.171Z,9.3611
2023-05-01T08:17:10.292Z,9.9333
2023-05-01T08:18:10.467Z,9.9722
2023-05-01T08:19:10.596Z,11.2222
2023-05-01T08:20:10.764Z,12.0389
2023-05-01T08:21:10.893Z,11.9667
2023-05-01T08:22:11.118Z,12.3167
2023-05-01T08:23:11.180Z,12.5778
2023-05-01T08:24:11.315Z,11.6556
2023-05-01T08:25:11.472Z,11.1389
2023-05-01T08:26:11.566Z,10.8222
2023-05-01T08:27:11.737Z,10.4000
2023-05-01T08:28:11.928Z,10.3389
2023-05-01T08:29:12.053Z,10.5500
2023-05-01T08:30:12.180Z,10.7889
2023-05-01T08:31:12.392Z,11.0722
2023-05-01T08:32:12.484Z,10.4222
2023-05-01T08:33:12.707Z,9.7111
2023-05-01T08:34:12.836Z,9.1111
2023-05-01T08:35:13.009Z,9.6833
2023-05-01T08:36:13.135Z,9.8222
2023-05-01T08:37:13.267Z,9.2722
2023-05-01T08:38:13.512Z,10.8111
2023-05-01T08:39:13.590Z,10.1389
2023-05-01T08:40:13.706Z,9.8556
2023-05-01T08:41:13.851Z,9.5944
2023-05-01T08:42:13.979Z,9.2278
2023-05-01T08:43:14.105Z,9.2889
2023-05-01T08:44:14.261Z,9.8167
2023-05-01T08:45:14.429Z,10.4000
2023-05-01T08:46:14.598Z,10.0556
2023-05-01T08:47:14.820Z,10.5000
2023-05-01T08:48:14.958Z,10.0389
2023-05-01T08:49:15.079Z,10.2389
2023-05-01T08:50:15.192Z,10.1889
2023-05-01T08:51:15.331Z,11.3444
2023-05-01T08:52:15.463Z,10.6222
2023-05-01T08:53:15.585Z,10.5778
2023-05-01T08:54:15.745Z,11.2889
2023-05-01T08:55:15.848Z,10.0444
2023-05-01T08:56:15.971Z,11.1389
2023-05-01T08:57:16.112Z,11.1556
2023-05-01T08:58:16.227Z,10.5000
2023-05-01T08:59:16.374Z,11.8611
2023-05-01T09:00:16.565Z,12.3222
2023-05-01T09:01:16.737Z,11.8944
2023-05-01T09:02:16.920Z,11.2222
2023-05-01T09:03:17.140Z,10.8722
2023-05-01T09:04:17.371Z,11.3833
2023-05-01T09:05:17.512Z,10.2944
2023-05-01T09:06:17.741Z,11.6056
2023-05-01T09:07:17.850Z,11.5611
2023-05-01T09:08:17.983Z,11.7944
2023-05-01T09:09:18.125Z,11.4778
2023-05-01T09:10:18.306Z,11.1500
2023-05-01T09:11:18.441Z,10.2778
2023-05-01T09:12:18.581Z,9.2778
2023-05-01T09:13:18.753Z,10.9611
2023-05-01T09:14:18.877Z,11.0556
2023-05-01T09:15:19.021Z,11.5167
2023-05-01T09:16:19.166Z,9.8333
2023-05-01T09:17:19.371Z,10.1444
2023-05-01T09:18:19.737Z,10.9889
2023-05-01T09:19:19.877Z,9.9722
2023-05-01T09:20:20.017Z,9.0000
2023-05-01T09:21:20.139Z,10.3056
2023-05-01T09:22:20.255Z,10.0667
2023-05-01T09:23:20.426Z,11.4278
2023-05-01T09:24:20.612Z,10.0333
2023-05-01T09:25:20.737Z,9.7556
2023-05-01T09:26:20.862Z,9.7556
2023-05-01T09:27:21.022Z,9.4056
2023-05-01T09:28:21.148Z,8.4444
2023-05-01T09:29:21.274Z,8.7500
2023-05-01T09:30:21.431Z,8.9500
2023-05-01T09:31:21.628Z,8.8833
2023-05-01T09:32:21.873Z,8.7167
2023-05-01T09:33:22.083Z,8.4000
2023-05-01T09:34:22.187Z,8.3500
2023-05-01T09:35:22.314Z,8.6722
2023-05-01T09:36:22.447Z,8.7000
2023-05-01T09:37:22.580Z,8.2389
2023-05-01T09:38:22.692Z,8.0889
2023-05-01T09:39:22.805Z,7.6611
2023-05-01T09:40:22.927Z,7.9889
2023-05-01T09:41:23.102Z,8.4556
2023-05-01T09:42:23.253Z,7.3000
2023-05-01T09:43:23.385Z,6.8944
2023-05-01T09:44:23.555Z,7.9556
2023-05-01T09:45:23.738Z,7.1889
2023-05-01T09:46:23.865Z,7.5056
2023-05-01T09:47:23.969Z,7.0000
2023-05-01T09:48:24.112Z,6.9722
2023-05-01T09:49:24.233Z,6.6556
2023-05-01T09:50:24.393Z,6.3611
2023-05-01T09:51:24.561Z,6.3556
2023-05-01T09:52:24.680Z,6.7389
2023-05-01T09:53:24.954Z,7.2000
2023-05-01T09:54:25.081Z,7.4000
2023-05-01T09:55:25.790Z,8.2833
2023-05-01T09:56:26.109Z,8.2778
2023-05-01T09:57:26.245Z,7.2167
2023-05-01T09:58:26.432Z,6.1556
2023-05-01T09:59:26.548Z,6.5056
2023-05-01T10:00:26.734Z,6.8889
2023-05-01T10:01:26.866Z,7.0222
2023-05-01T10:02:27.058Z,7.2778
2023-05-01T10:03:27.331Z,6.8333
2023-05-01T10:04:27.480Z,6.7889
2023-05-01T10:05:27.698Z,6.2111
2023-05-01T10:06:27.995Z,6.5944
2023-05-01T10:07:28.112Z,6.9389
2023-05-01T10:08:28.195Z,6.8389
2023-05-01T10:09:28.313Z,7.3444
2023-05-01T10:10:28.462Z,6.9111
2023-05-01T10:11:28.708Z,6.9667
2023-05-01T10:12:28.782Z,7.1444
2023-05-01T10:13:28.898Z,6.6556
2023-05-01T10:14:29.028Z,6.7000
2023-05-01T10:15:29.143Z,6.7722
2023-05-01T10:16:29.321Z,7.0722
2023-05-01T10:17:29.489Z,6.5167
2023-05-01T10:18:29.584Z,5.7222
2023-05-01T10:19:29.708Z,5.0333
2023-05-01T10:20:29.850Z,4.8611
2023-05-01T10:21:29.965Z,5.1222
2023-05-01T10:22:30.089Z,5.8056
2023-05-01T10:23:30.194Z,6.2167
2023-05-01T10:24:30.393Z,6.3556
2023-05-01T10:25:30.503Z,6.3556
2023-05-01T10:26:30.625Z,5.6278
2023-05-01T10:27:30.763Z,4.9667
2023-05-01T10:28:30.964Z,4.5500
2023-05-01T10:29:31.063Z,5.2111
2023-05-01T10:30:31.153Z,3.2389
2023-05-01T10:31:31.334Z,3.2167
2023-05-01T10:32:31.437Z,2.9444
2023-05-01T10:33:31.569Z,2.9944
2023-05-01T10:34:31.717Z,3.4278
2023-05-01T10:35:31.878Z,3.2889
2023-05-01T10:36:32.022Z,3.6278
2023-05-01T10:37:32.119Z,3.7000
2023-05-01T10:38:32.239Z,4.4389
2023-05-01T10:39:32.378Z,4.7444
2023-05-01T10:40:32.539Z,3.3500
2023-05-01T10:41:32.671Z,3.1556
2023-05-01T10:42:32.826Z,3.3333
2023-05-01T10:43:33.921Z,3.1833
2023-05-01T10:44:34.047Z,3.0056
2023-05-01T10:45:35.896Z,2.9611
2023-05-01T10:46:36.075Z,2.8167
2023-05-01T10:47:36.241Z,3.1889
2023-05-01T10:48:36.366Z,3.3278
2023-05-01T10:49:36.488Z,3.2000
2023-05-01T10:50:36.641Z,3.0944
2023-05-01T10:51:36.741Z,3.2167
2023-05-01T10:52:36.858Z,2.8944
2023-05-01T10:53:36.979Z,2.9278
2023-05-01T10:54:37.222Z,2.9056
2023-05-01T10:55:37.388Z,2.9944
2023-05-01T10:56:37.503Z,2.6722
2023-05-01T10:57:37.646Z,2.7167
2023-05-01T10:58:37.749Z,2.7944
2023-05-01T10:59:37.940Z,2.9111
2023-05-01T11:00:38.096Z,2.9222
2023-05-01T11:01:38.268Z,3.3833
2023-05-01T11:02:38.424Z,4.0333
2023-05-01T11:03:38.514Z,3.2222
2023-05-01T11:04:38.627Z,2.5111
2023-05-01T11:05:38.928Z,2.3000
2023-05-01T11:06:39.172Z,1.9944
2023-05-01T11:07:39.364Z,2.1833
2023-05-01T11:08:39.486Z,2.1389
2023-05-01T11:09:39.608Z,2.2889
2023-05-01T11:10:39.736Z,2.5000
2023-05-01T11:11:39.855Z,2.2333
2023-05-01T11:12:39.985Z,1.8278
2023-05-01T11:13:40.166Z,1.8278
2023-05-01T11:14:40.317Z,1.8611
2023-05-01T11:15:40.412Z,2.3444
2023-05-01T11:16:40.631Z,1.7444
2023-05-01T11:17:40.965Z,1.7278
2023-05-01T11:18:41.087Z,1.8722
2023-05-01T11:19:41.218Z,1.8389
2023-05-01T11:20:41.359Z,1.7556
2023-05-01T11:21:41.468Z,1.9222
2023-05-01T11:22:41.592Z,2.0778
2023-05-01T11:23:41.708Z,2.5944
2023-05-01T11:24:41.953Z,2.2667
2023-05-01T11:25:42.085Z,2.4000
2023-05-01T11:26:42.244Z,2.5278
2023-05-01T11:27:42.320Z,2.8444
2023-05-01T11:28:42.455Z,2.5000
2023-05-01T11:29:42.559Z,2.7778
2023-05-01T11:30:42.807Z,2.2722
2023-05-01T11:31:42.970Z,2.2778
2023-05-01T11:32:43.104Z,3.5556
2023-05-01T11:33:43.285Z,2.4611
2023-05-01T11:34:43.451Z,2.4833
2023-05-01T11:35:43.618Z,2.6444
2023-05-01T11:36:43.797Z,2.7556
2023-05-01T11:37:43.949Z,2.3278
2023-05-01T11:38:44.092Z,2.5944
2023-05-01T11:39:44.265Z,2.4500
2023-05-01T11:40:44.447Z,2.7278
2023-05-01T11:41:44.602Z,2.2278
2023-05-01T11:42:44.780Z,2.3333
2023-05-01T11:43:44.952Z,2.4167
2023-05-01T11:44:45.122Z,2.3278
2023-05-01T11:45:45.329Z,2.4333
2023-05-01T11:46:45.446Z,2.2611
2023-05-01T11:47:45.629Z,2.4889
2023-05-01T11:48:45.774Z,2.3111
2023-05-01T11:49:45.976Z,2.4111
2023-05-01T11:50:46.143Z,2.2722
2023-05-01T11:51:46.280Z,2.9556
2023-05-01T11:52:46.499Z,1.9778
2023-05-01T11:53:46.656Z,2.2278
2023-05-01T11:54:46.842Z,2.1500
2023-05-01T11:55:46.971Z,2.3056
2023-05-01T11:56:47.141Z,2.4056
2023-05-01T11:57:47.364Z,2.6944
2023-05-01T11:58:47.533Z,2.5500
2023-05-01T11:59:47.669Z,2.4556
2023-05-01T12:00:47.842Z,2.2611
2023-05-01T12:01:48.061Z,2.5944
2023-05-01T12:02:48.265Z,2.3889
2023-05-01T12:03:48.479Z,1.9833
2023-05-01T12:04:48.741Z,2.2944
2023-05-01T12:05:48.895Z,2.6500
2023-05-01T12:06:49.122Z,2.9222
2023-05-01T12:07:49.256Z,2.0389
2023-05-01T12:08:49.402Z,2.1000
2023-05-01T12:09:49.548Z,2.6556
2023-05-01T12:10:49.729Z,2.8611
2023-05-01T12:11:51.918Z,2.3222
2023-05-01T12:12:52.604Z,2.0278
2023-05-01T12:13:52.758Z,2.4056
2023-05-01T12:14:52.991Z,2.4278
2023-05-01T12:15:53.138Z,2.2611
2023-05-01T12:16:53.340Z,2.7056
2023-05-01T12:17:53.565Z,2.7000
2023-05-01T12:18:53.660Z,2.3000